CheckWX is a tool to help pilots better visualize weather data.  It is not intended as a substitute for an official pre-flight weather briefing.

03:34:48 UTC

SLJO METAR
San Joaquín Airport
San Joaquín, Bolivia
Current

6 hours ago

SLJO 212200Z 00000KT 9999 FEW017 BKN080 BKN200 27/25 Q1010
Observed
May-21 @ 22:00 UTC
Visibility
10,000+ meters
Flight Rules
VFR
Cloud Levels
  • Few at 1,700' AGL
  • Broken at 8,000' AGL
  • Broken at 20,000' AGL
Temperature
27°C / 81°F
Dewpoint
25°C / 77°F
Heat Index
31°C / 88°F
Humidity
89%
Altimeter
29.82" Hg
Pressure
1009.92 hPa
Previous

7 hours ago

SLJO 212100Z 00000KT 9999 FEW017 FEW023CB SCT080 BKN200 27/24 Q1010
Observed
May-21 @ 21:00 UTC
Visibility
10,000+ meters
Flight Rules
VFR
Cloud Levels
  • Few at 1,700' AGL
  • Few at 2,300' AGL
  • Scattered at 8,000' AGL
  • Broken at 20,000' AGL
Temperature
27°C / 81°F
Dewpoint
24°C / 75°F
Heat Index
31°C / 87°F
Humidity
84%
Altimeter
29.82" Hg
Pressure
1009.92 hPa
Previous

8 hours ago

SLJO 212000Z 00000KT 9999 FEW017 FEW023CB SCT080 BKN200 27/25 Q1011
Observed
May-21 @ 20:00 UTC
Visibility
10,000+ meters
Flight Rules
VFR
Cloud Levels
  • Few at 1,700' AGL
  • Few at 2,300' AGL
  • Scattered at 8,000' AGL
  • Broken at 20,000' AGL
Temperature
27°C / 81°F
Dewpoint
25°C / 77°F
Heat Index
31°C / 88°F
Humidity
89%
Altimeter
29.85" Hg
Pressure
1010.92 hPa